sensor_id;sensor_type;location;lat;lon;timestamp;P1;durP1;ratioP1;P2;durP2;ratioP2
26223;SDS011;14820;48.682;8.890;2023-01-15T00:01:35;0.80;;;0.73;;
26223;SDS011;14820;48.682;8.890;2023-01-15T00:04:01;1.20;;;1.00;;
26223;SDS011;14820;48.682;8.890;2023-01-15T00:06:30;2.25;;;0.90;;
26223;SDS011;14820;48.682;8.890;2023-01-15T00:08:59;3.03;;;0.85;;
26223;SDS011;14820;48.682;8.890;2023-01-15T00:11:24;1.10;;;0.73;;
26223;SDS011;14820;48.682;8.890;2023-01-15T00:13:50;1.13;;;0.90;;
26223;SDS011;14820;48.682;8.890;2023-01-15T00:16:20;1.20;;;0.85;;
26223;SDS011;14820;48.682;8.890;2023-01-15T00:18:51;2.05;;;0.98;;
26223;SDS011;14820;48.682;8.890;2023-01-15T00:21:25;1.02;;;0.80;;
26223;SDS011;14820;48.682;8.890;2023-01-15T00:23:52;1.50;;;0.75;;
26223;SDS011;14820;48.682;8.890;2023-01-15T00:26:39;1.45;;;0.80;;
26223;SDS011;14820;48.682;8.890;2023-01-15T00:29:24;2.28;;;0.88;;
26223;SDS011;14820;48.682;8.890;2023-01-15T00:31:55;2.28;;;0.70;;
26223;SDS011;14820;48.682;8.890;2023-01-15T00:34:22;1.17;;;0.70;;
26223;SDS011;14820;48.682;8.890;2023-01-15T00:36:48;1.05;;;0.65;;
26223;SDS011;14820;48.682;8.890;2023-01-15T00:39:14;1.80;;;0.80;;
26223;SDS011;14820;48.682;8.890;2023-01-15T00:41:40;2.90;;;0.80;;
26223;SDS011;14820;48.682;8.890;2023-01-15T00:44:06;2.60;;;0.60;;
26223;SDS011;14820;48.682;8.890;2023-01-15T00:46:32;1.17;;;0.68;;
26223;SDS011;14820;48.682;8.890;2023-01-15T00:48:57;0.98;;;0.77;;
26223;SDS011;14820;48.682;8.890;2023-01-15T00:51:23;1.38;;;0.60;;
26223;SDS011;14820;48.682;8.890;2023-01-15T00:53:49;0.77;;;0.50;;
26223;SDS011;14820;48.682;8.890;2023-01-15T00:56:14;1.15;;;0.50;;
26223;SDS011;14820;48.682;8.890;2023-01-15T00:58:40;0.88;;;0.65;;
26223;SDS011;14820;48.682;8.890;2023-01-15T01:01:06;1.30;;;0.50;;
26223;SDS011;14820;48.682;8.890;2023-01-15T01:03:32;2.75;;;0.50;;
26223;SDS011;14820;48.682;8.890;2023-01-15T01:05:59;0.70;;;0.40;;
26223;SDS011;14820;48.682;8.890;2023-01-15T01:08:27;2.28;;;0.50;;
26223;SDS011;14820;48.682;8.890;2023-01-15T01:11:03;0.50;;;0.50;;
26223;SDS011;14820;48.682;8.890;2023-01-15T01:13:33;0.77;;;0.60;;
26223;SDS011;14820;48.682;8.890;2023-01-15T01:16:00;0.88;;;0.47;;
26223;SDS011;14820;48.682;8.890;2023-01-15T01:18:26;0.40;;;0.40;;
26223;SDS011;14820;48.682;8.890;2023-01-15T01:20:53;3.33;;;0.50;;
26223;SDS011;14820;48.682;8.890;2023-01-15T01:23:20;0.50;;;0.50;;
26223;SDS011;14820;48.682;8.890;2023-01-15T01:25:47;0.20;;;0.20;;
26223;SDS011;14820;48.682;8.890;2023-01-15T01:28:12;1.58;;;0.40;;
26223;SDS011;14820;48.682;8.890;2023-01-15T01:30:38;0.40;;;0.40;;
26223;SDS011;14820;48.682;8.890;2023-01-15T01:33:04;0.70;;;0.43;;
26223;SDS011;14820;48.682;8.890;2023-01-15T01:35:29;0.57;;;0.55;;
26223;SDS011;14820;48.682;8.890;2023-01-15T01:37:55;0.75;;;0.50;;
26223;SDS011;14820;48.682;8.890;2023-01-15T01:40:21;1.00;;;0.50;;
26223;SDS011;14820;48.682;8.890;2023-01-15T01:42:47;0.43;;;0.40;;
26223;SDS011;14820;48.682;8.890;2023-01-15T01:45:17;0.40;;;0.30;;
26223;SDS011;14820;48.682;8.890;2023-01-15T01:47:49;0.43;;;0.38;;
26223;SDS011;14820;48.682;8.890;2023-01-15T01:50:18;0.63;;;0.50;;
26223;SDS011;14820;48.682;8.890;2023-01-15T01:52:46;0.77;;;0.40;;
26223;SDS011;14820;48.682;8.890;2023-01-15T01:55:17;0.30;;;0.30;;
26223;SDS011;14820;48.682;8.890;2023-01-15T01:57:44;0.30;;;0.30;;
26223;SDS011;14820;48.682;8.890;2023-01-15T02:00:12;0.40;;;0.40;;
26223;SDS011;14820;48.682;8.890;2023-01-15T02:02:39;1.27;;;0.40;;
26223;SDS011;14820;48.682;8.890;2023-01-15T02:05:11;1.63;;;0.50;;
26223;SDS011;14820;48.682;8.890;2023-01-15T02:07:45;0.88;;;0.45;;
26223;SDS011;14820;48.682;8.890;2023-01-15T02:10:14;0.52;;;0.40;;
26223;SDS011;14820;48.682;8.890;2023-01-15T02:12:40;0.30;;;0.30;;
26223;SDS011;14820;48.682;8.890;2023-01-15T02:28:43;0.30;;;0.30;;
26223;SDS011;14820;48.682;8.890;2023-01-15T02:31:12;0.35;;;0.30;;
26223;SDS011;14820;48.682;8.890;2023-01-15T02:33:44;0.52;;;0.38;;
26223;SDS011;14820;48.682;8.890;2023-01-15T02:36:21;0.50;;;0.40;;
26223;SDS011;14820;48.682;8.890;2023-01-15T02:38:49;0.40;;;0.40;;
26223;SDS011;14820;48.682;8.890;2023-01-15T02:41:17;0.38;;;0.38;;
26223;SDS011;14820;48.682;8.890;2023-01-15T02:43:47;0.30;;;0.30;;
26223;SDS011;14820;48.682;8.890;2023-01-15T02:46:16;0.45;;;0.40;;
26223;SDS011;14820;48.682;8.890;2023-01-15T02:48:45;0.50;;;0.40;;
26223;SDS011;14820;48.682;8.890;2023-01-15T02:51:16;0.38;;;0.30;;
26223;SDS011;14820;48.682;8.890;2023-01-15T02:53:47;0.40;;;0.40;;
26223;SDS011;14820;48.682;8.890;2023-01-15T02:56:17;0.30;;;0.30;;
26223;SDS011;14820;48.682;8.890;2023-01-15T02:58:45;1.42;;;0.40;;
26223;SDS011;14820;48.682;8.890;2023-01-15T03:01:16;0.30;;;0.30;;
26223;SDS011;14820;48.682;8.890;2023-01-15T03:04:19;0.40;;;0.40;;
26223;SDS011;14820;48.682;8.890;2023-01-15T03:06:43;0.43;;;0.38;;
26223;SDS011;14820;48.682;8.890;2023-01-15T03:09:18;0.60;;;0.60;;
26223;SDS011;14820;48.682;8.890;2023-01-15T03:14:37;0.50;;;0.40;;
26223;SDS011;14820;48.682;8.890;2023-01-15T03:17:14;0.38;;;0.32;;
26223;SDS011;14820;48.682;8.890;2023-01-15T03:22:16;0.40;;;0.40;;
26223;SDS011;14820;48.682;8.890;2023-01-15T03:24:58;0.50;;;0.45;;
26223;SDS011;14820;48.682;8.890;2023-01-15T03:27:28;8.00;;;2.40;;
26223;SDS011;14820;48.682;8.890;2023-01-15T03:29:58;0.57;;;0.50;;
26223;SDS011;14820;48.682;8.890;2023-01-15T03:32:28;0.47;;;0.45;;
26223;SDS011;14820;48.682;8.890;2023-01-15T03:34:55;0.40;;;0.40;;
26223;SDS011;14820;48.682;8.890;2023-01-15T03:37:22;0.40;;;0.40;;
26223;SDS011;14820;48.682;8.890;2023-01-15T03:39:51;0.30;;;0.30;;
26223;SDS011;14820;48.682;8.890;2023-01-15T03:45:20;1.05;;;0.40;;
26223;SDS011;14820;48.682;8.890;2023-01-15T03:48:00;0.47;;;0.30;;
26223;SDS011;14820;48.682;8.890;2023-01-15T03:53:17;0.35;;;0.35;;
26223;SDS011;14820;48.682;8.890;2023-01-15T03:55:52;0.30;;;0.30;;
26223;SDS011;14820;48.682;8.890;2023-01-15T03:58:31;0.80;;;0.50;;
26223;SDS011;14820;48.682;8.890;2023-01-15T04:01:03;0.30;;;0.30;;
26223;SDS011;14820;48.682;8.890;2023-01-15T04:03:34;0.30;;;0.30;;
26223;SDS011;14820;48.682;8.890;2023-01-15T04:06:01;0.30;;;0.30;;
26223;SDS011;14820;48.682;8.890;2023-01-15T04:08:29;0.30;;;0.30;;
26223;SDS011;14820;48.682;8.890;2023-01-15T04:10:59;0.52;;;0.30;;
26223;SDS011;14820;48.682;8.890;2023-01-15T04:13:25;0.30;;;0.30;;
26223;SDS011;14820;48.682;8.890;2023-01-15T04:15:51;0.55;;;0.38;;
26223;SDS011;14820;48.682;8.890;2023-01-15T04:18:18;0.43;;;0.28;;
26223;SDS011;14820;48.682;8.890;2023-01-15T04:20:44;0.47;;;0.40;;
26223;SDS011;14820;48.682;8.890;2023-01-15T04:23:10;0.40;;;0.40;;
26223;SDS011;14820;48.682;8.890;2023-01-15T04:25:36;0.68;;;0.60;;
26223;SDS011;14820;48.682;8.890;2023-01-15T04:28:05;0.30;;;0.30;;
26223;SDS011;14820;48.682;8.890;2023-01-15T04:30:31;0.57;;;0.40;;
26223;SDS011;14820;48.682;8.890;2023-01-15T04:32:57;1.50;;;0.77;;
26223;SDS011;14820;48.682;8.890;2023-01-15T04:35:23;2.58;;;0.82;;
26223;SDS011;14820;48.682;8.890;2023-01-15T04:37:48;4.82;;;1.58;;
26223;SDS011;14820;48.682;8.890;2023-01-15T04:40:19;1.15;;;0.90;;
26223;SDS011;14820;48.682;8.890;2023-01-15T04:43:03;0.50;;;0.40;;
26223;SDS011;14820;48.682;8.890;2023-01-15T04:45:47;0.32;;;0.30;;
26223;SDS011;14820;48.682;8.890;2023-01-15T04:48:13;1.10;;;0.30;;
26223;SDS011;14820;48.682;8.890;2023-01-15T04:50:38;0.45;;;0.45;;
26223;SDS011;14820;48.682;8.890;2023-01-15T04:53:04;0.40;;;0.40;;
26223;SDS011;14820;48.682;8.890;2023-01-15T04:55:30;0.50;;;0.50;;
26223;SDS011;14820;48.682;8.890;2023-01-15T04:57:56;0.60;;;0.50;;
26223;SDS011;14820;48.682;8.890;2023-01-15T05:00:21;1.08;;;0.60;;
26223;SDS011;14820;48.682;8.890;2023-01-15T05:02:47;0.68;;;0.60;;
26223;SDS011;14820;48.682;8.890;2023-01-15T05:05:14;0.50;;;0.50;;
26223;SDS011;14820;48.682;8.890;2023-01-15T05:07:40;0.40;;;0.40;;
26223;SDS011;14820;48.682;8.890;2023-01-15T05:10:06;0.90;;;0.43;;
26223;SDS011;14820;48.682;8.890;2023-01-15T05:12:32;1.48;;;0.30;;
26223;SDS011;14820;48.682;8.890;2023-01-15T05:14:57;0.55;;;0.40;;
26223;SDS011;14820;48.682;8.890;2023-01-15T05:17:23;0.20;;;0.20;;
26223;SDS011;14820;48.682;8.890;2023-01-15T05:19:48;0.30;;;0.30;;
26223;SDS011;14820;48.682;8.890;2023-01-15T05:22:14;0.30;;;0.30;;
26223;SDS011;14820;48.682;8.890;2023-01-15T05:24:40;0.80;;;0.60;;
26223;SDS011;14820;48.682;8.890;2023-01-15T05:27:05;0.75;;;0.50;;
26223;SDS011;14820;48.682;8.890;2023-01-15T05:29:31;0.20;;;0.20;;
26223;SDS011;14820;48.682;8.890;2023-01-15T05:31:57;0.30;;;0.30;;
26223;SDS011;14820;48.682;8.890;2023-01-15T05:34:22;0.30;;;0.30;;
26223;SDS011;14820;48.682;8.890;2023-01-15T05:36:48;0.22;;;0.20;;
26223;SDS011;14820;48.682;8.890;2023-01-15T05:39:14;0.40;;;0.32;;
26223;SDS011;14820;48.682;8.890;2023-01-15T05:41:40;1.08;;;0.30;;
26223;SDS011;14820;48.682;8.890;2023-01-15T05:44:24;0.30;;;0.30;;
26223;SDS011;14820;48.682;8.890;2023-01-15T05:46:52;0.30;;;0.30;;
26223;SDS011;14820;48.682;8.890;2023-01-15T05:49:20;0.25;;;0.25;;
26223;SDS011;14820;48.682;8.890;2023-01-15T05:51:47;0.60;;;0.28;;
26223;SDS011;14820;48.682;8.890;2023-01-15T05:54:15;0.20;;;0.20;;
26223;SDS011;14820;48.682;8.890;2023-01-15T05:56:42;0.20;;;0.20;;
26223;SDS011;14820;48.682;8.890;2023-01-15T05:59:10;0.20;;;0.20;;
26223;SDS011;14820;48.682;8.890;2023-01-15T06:01:36;0.30;;;0.30;;
26223;SDS011;14820;48.682;8.890;2023-01-15T06:04:03;0.65;;;0.30;;
26223;SDS011;14820;48.682;8.890;2023-01-15T06:06:30;0.20;;;0.20;;
26223;SDS011;14820;48.682;8.890;2023-01-15T06:08:56;0.30;;;0.30;;
26223;SDS011;14820;48.682;8.890;2023-01-15T06:11:22;0.30;;;0.30;;
26223;SDS011;14820;48.682;8.890;2023-01-15T06:13:48;0.30;;;0.30;;
26223;SDS011;14820;48.682;8.890;2023-01-15T06:16:14;0.30;;;0.30;;
26223;SDS011;14820;48.682;8.890;2023-01-15T06:18:40;0.30;;;0.30;;
26223;SDS011;14820;48.682;8.890;2023-01-15T06:21:07;0.30;;;0.30;;
26223;SDS011;14820;48.682;8.890;2023-01-15T06:23:34;0.30;;;0.30;;
26223;SDS011;14820;48.682;8.890;2023-01-15T06:26:10;0.38;;;0.38;;
26223;SDS011;14820;48.682;8.890;2023-01-15T06:28:40;0.30;;;0.30;;
26223;SDS011;14820;48.682;8.890;2023-01-15T06:31:10;0.30;;;0.30;;
26223;SDS011;14820;48.682;8.890;2023-01-15T06:33:37;0.30;;;0.30;;
26223;SDS011;14820;48.682;8.890;2023-01-15T06:36:04;0.30;;;0.30;;
26223;SDS011;14820;48.682;8.890;2023-01-15T06:38:31;0.30;;;0.30;;
26223;SDS011;14820;48.682;8.890;2023-01-15T06:40:58;1.95;;;0.30;;
26223;SDS011;14820;48.682;8.890;2023-01-15T06:43:24;0.30;;;0.30;;
26223;SDS011;14820;48.682;8.890;2023-01-15T06:46:08;0.30;;;0.30;;
26223;SDS011;14820;48.682;8.890;2023-01-15T06:48:53;1.10;;;0.80;;
26223;SDS011;14820;48.682;8.890;2023-01-15T06:51:18;1.30;;;0.93;;
26223;SDS011;14820;48.682;8.890;2023-01-15T06:53:47;0.30;;;0.30;;
26223;SDS011;14820;48.682;8.890;2023-01-15T06:56:13;0.40;;;0.40;;
26223;SDS011;14820;48.682;8.890;2023-01-15T06:58:39;0.45;;;0.30;;
26223;SDS011;14820;48.682;8.890;2023-01-15T07:01:07;0.30;;;0.30;;
26223;SDS011;14820;48.682;8.890;2023-01-15T07:03:34;0.40;;;0.40;;
26223;SDS011;14820;48.682;8.890;2023-01-15T07:06:03;0.40;;;0.40;;
26223;SDS011;14820;48.682;8.890;2023-01-15T07:08:30;2.40;;;0.30;;
26223;SDS011;14820;48.682;8.890;2023-01-15T07:11:00;0.35;;;0.32;;
26223;SDS011;14820;48.682;8.890;2023-01-15T07:13:29;0.63;;;0.63;;
26223;SDS011;14820;48.682;8.890;2023-01-15T07:15:56;0.40;;;0.40;;
26223;SDS011;14820;48.682;8.890;2023-01-15T07:18:29;0.50;;;0.50;;
26223;SDS011;14820;48.682;8.890;2023-01-15T07:20:56;0.50;;;0.50;;
26223;SDS011;14820;48.682;8.890;2023-01-15T07:23:23;0.88;;;0.70;;
26223;SDS011;14820;48.682;8.890;2023-01-15T07:25:53;0.50;;;0.50;;
26223;SDS011;14820;48.682;8.890;2023-01-15T07:28:20;0.30;;;0.30;;
26223;SDS011;14820;48.682;8.890;2023-01-15T07:30:46;0.40;;;0.40;;
26223;SDS011;14820;48.682;8.890;2023-01-15T07:33:12;0.50;;;0.50;;
26223;SDS011;14820;48.682;8.890;2023-01-15T07:35:38;0.73;;;0.63;;
26223;SDS011;14820;48.682;8.890;2023-01-15T07:38:04;0.50;;;0.40;;
26223;SDS011;14820;48.682;8.890;2023-01-15T07:40:29;1.88;;;1.20;;
26223;SDS011;14820;48.682;8.890;2023-01-15T07:42:55;1.40;;;0.60;;
26223;SDS011;14820;48.682;8.890;2023-01-15T07:45:39;0.60;;;0.60;;
26223;SDS011;14820;48.682;8.890;2023-01-15T07:48:25;1.98;;;1.00;;
26223;SDS011;14820;48.682;8.890;2023-01-15T07:51:10;0.85;;;0.80;;
26223;SDS011;14820;48.682;8.890;2023-01-15T07:53:35;0.57;;;0.57;;
26223;SDS011;14820;48.682;8.890;2023-01-15T07:56:01;1.60;;;1.13;;
26223;SDS011;14820;48.682;8.890;2023-01-15T07:58:27;1.75;;;1.00;;
26223;SDS011;14820;48.682;8.890;2023-01-15T08:00:52;0.63;;;0.50;;
26223;SDS011;14820;48.682;8.890;2023-01-15T08:03:18;0.65;;;0.65;;
26223;SDS011;14820;48.682;8.890;2023-01-15T08:05:44;0.60;;;0.47;;
26223;SDS011;14820;48.682;8.890;2023-01-15T08:08:13;1.95;;;0.80;;
26223;SDS011;14820;48.682;8.890;2023-01-15T08:10:40;1.05;;;0.90;;
26223;SDS011;14820;48.682;8.890;2023-01-15T08:13:25;0.52;;;0.52;;
26223;SDS011;14820;48.682;8.890;2023-01-15T08:16:09;0.40;;;0.32;;
26223;SDS011;14820;48.682;8.890;2023-01-15T08:18:36;0.73;;;0.40;;
26223;SDS011;14820;48.682;8.890;2023-01-15T08:21:02;0.60;;;0.60;;
26223;SDS011;14820;48.682;8.890;2023-01-15T08:23:27;0.50;;;0.50;;
26223;SDS011;14820;48.682;8.890;2023-01-15T08:25:53;0.40;;;0.40;;
26223;SDS011;14820;48.682;8.890;2023-01-15T08:28:19;0.38;;;0.38;;
26223;SDS011;14820;48.682;8.890;2023-01-15T08:30:44;0.40;;;0.40;;
26223;SDS011;14820;48.682;8.890;2023-01-15T08:33:10;0.50;;;0.43;;
26223;SDS011;14820;48.682;8.890;2023-01-15T08:35:36;0.30;;;0.30;;
26223;SDS011;14820;48.682;8.890;2023-01-15T08:38:05;0.30;;;0.30;;
26223;SDS011;14820;48.682;8.890;2023-01-15T08:40:30;0.30;;;0.30;;
26223;SDS011;14820;48.682;8.890;2023-01-15T08:42:56;0.75;;;0.47;;
26223;SDS011;14820;48.682;8.890;2023-01-15T08:45:22;1.00;;;0.85;;
26223;SDS011;14820;48.682;8.890;2023-01-15T08:47:48;1.42;;;1.00;;
26223;SDS011;14820;48.682;8.890;2023-01-15T08:50:13;0.80;;;0.68;;
26223;SDS011;14820;48.682;8.890;2023-01-15T08:52:39;3.05;;;1.63;;
26223;SDS011;14820;48.682;8.890;2023-01-15T08:55:05;1.45;;;1.05;;
26223;SDS011;14820;48.682;8.890;2023-01-15T08:57:32;1.50;;;1.00;;
26223;SDS011;14820;48.682;8.890;2023-01-15T08:59:57;1.25;;;1.00;;
26223;SDS011;14820;48.682;8.890;2023-01-15T09:02:23;0.70;;;0.70;;
26223;SDS011;14820;48.682;8.890;2023-01-15T09:04:49;2.25;;;0.60;;
26223;SDS011;14820;48.682;8.890;2023-01-15T09:07:16;1.58;;;0.88;;
26223;SDS011;14820;48.682;8.890;2023-01-15T09:09:42;1.60;;;0.80;;
26223;SDS011;14820;48.682;8.890;2023-01-15T09:12:07;0.50;;;0.50;;
26223;SDS011;14820;48.682;8.890;2023-01-15T09:14:33;0.75;;;0.70;;
26223;SDS011;14820;48.682;8.890;2023-01-15T09:16:59;0.50;;;0.50;;
26223;SDS011;14820;48.682;8.890;2023-01-15T09:19:24;0.60;;;0.60;;
26223;SDS011;14820;48.682;8.890;2023-01-15T09:21:50;0.60;;;0.60;;
26223;SDS011;14820;48.682;8.890;2023-01-15T09:24:16;0.55;;;0.40;;
26223;SDS011;14820;48.682;8.890;2023-01-15T09:26:41;0.50;;;0.50;;
26223;SDS011;14820;48.682;8.890;2023-01-15T09:29:07;0.47;;;0.47;;
26223;SDS011;14820;48.682;8.890;2023-01-15T09:31:33;0.77;;;0.60;;
26223;SDS011;14820;48.682;8.890;2023-01-15T09:33:58;1.10;;;0.82;;
26223;SDS011;14820;48.682;8.890;2023-01-15T09:36:31;0.63;;;0.60;;
26223;SDS011;14820;48.682;8.890;2023-01-15T09:38:59;0.65;;;0.63;;
26223;SDS011;14820;48.682;8.890;2023-01-15T09:41:30;0.82;;;0.80;;
26223;SDS011;14820;48.682;8.890;2023-01-15T09:47:07;3.72;;;2.70;;
26223;SDS011;14820;48.682;8.890;2023-01-15T09:55:17;0.50;;;0.50;;
26223;SDS011;14820;48.682;8.890;2023-01-15T09:57:50;1.23;;;1.13;;
26223;SDS011;14820;48.682;8.890;2023-01-15T10:00:22;3.35;;;2.97;;
26223;SDS011;14820;48.682;8.890;2023-01-15T10:05:42;1.50;;;1.02;;
26223;SDS011;14820;48.682;8.890;2023-01-15T10:10:47;1.40;;;1.20;;
26223;SDS011;14820;48.682;8.890;2023-01-15T10:13:20;2.20;;;1.42;;
26223;SDS011;14820;48.682;8.890;2023-01-15T10:15:53;3.10;;;2.15;;
26223;SDS011;14820;48.682;8.890;2023-01-15T10:18:20;0.95;;;0.90;;
26223;SDS011;14820;48.682;8.890;2023-01-15T10:29:21;2.45;;;1.42;;
26223;SDS011;14820;48.682;8.890;2023-01-15T10:34:26;1.40;;;0.80;;
26223;SDS011;14820;48.682;8.890;2023-01-15T10:40:17;0.57;;;0.57;;
26223;SDS011;14820;48.682;8.890;2023-01-15T10:45:43;4.00;;;0.47;;
26223;SDS011;14820;48.682;8.890;2023-01-15T10:50:48;0.63;;;0.60;;
26223;SDS011;14820;48.682;8.890;2023-01-15T10:53:25;0.80;;;0.80;;
26223;SDS011;14820;48.682;8.890;2023-01-15T10:55:59;0.75;;;0.50;;
26223;SDS011;14820;48.682;8.890;2023-01-15T11:01:04;0.57;;;0.57;;
26223;SDS011;14820;48.682;8.890;2023-01-15T11:03:36;0.98;;;0.70;;
26223;SDS011;14820;48.682;8.890;2023-01-15T11:06:05;0.98;;;0.80;;
26223;SDS011;14820;48.682;8.890;2023-01-15T11:08:36;0.90;;;0.90;;
26223;SDS011;14820;48.682;8.890;2023-01-15T11:11:16;0.68;;;0.60;;
26223;SDS011;14820;48.682;8.890;2023-01-15T11:14:36;0.93;;;0.75;;
26223;SDS011;14820;48.682;8.890;2023-01-15T11:17:46;0.90;;;0.75;;
26223;SDS011;14820;48.682;8.890;2023-01-15T11:22:56;0.95;;;0.88;;
26223;SDS011;14820;48.682;8.890;2023-01-15T11:25:30;0.80;;;0.80;;
26223;SDS011;14820;48.682;8.890;2023-01-15T11:27:57;1.05;;;0.80;;
26223;SDS011;14820;48.682;8.890;2023-01-15T11:30:32;1.00;;;0.70;;
26223;SDS011;14820;48.682;8.890;2023-01-15T11:33:03;0.80;;;0.67;;
26223;SDS011;14820;48.682;8.890;2023-01-15T11:35:31;0.80;;;0.70;;
26223;SDS011;14820;48.682;8.890;2023-01-15T11:38:02;0.50;;;0.50;;
26223;SDS011;14820;48.682;8.890;2023-01-15T11:40:38;0.60;;;0.60;;
26223;SDS011;14820;48.682;8.890;2023-01-15T11:43:21;0.77;;;0.70;;
26223;SDS011;14820;48.682;8.890;2023-01-15T11:46:29;1.02;;;0.80;;
26223;SDS011;14820;48.682;8.890;2023-01-15T11:49:15;1.30;;;1.00;;
26223;SDS011;14820;48.682;8.890;2023-01-15T11:52:02;3.13;;;1.27;;
26223;SDS011;14820;48.682;8.890;2023-01-15T11:54:39;2.92;;;1.55;;
26223;SDS011;14820;48.682;8.890;2023-01-15T11:57:07;1.48;;;1.10;;
26223;SDS011;14820;48.682;8.890;2023-01-15T11:59:34;1.83;;;1.40;;
26223;SDS011;14820;48.682;8.890;2023-01-15T12:02:27;3.20;;;1.10;;
26223;SDS011;14820;48.682;8.890;2023-01-15T12:04:59;0.85;;;0.80;;
26223;SDS011;14820;48.682;8.890;2023-01-15T12:07:29;2.28;;;1.55;;
26223;SDS011;14820;48.682;8.890;2023-01-15T12:21:13;4.63;;;1.40;;
26223;SDS011;14820;48.682;8.890;2023-01-15T12:27:02;3.88;;;2.17;;
26223;SDS011;14820;48.682;8.890;2023-01-15T12:29:41;4.03;;;2.08;;
26223;SDS011;14820;48.682;8.890;2023-01-15T12:32:12;5.85;;;2.88;;
26223;SDS011;14820;48.682;8.890;2023-01-15T12:37:45;7.25;;;3.72;;
26223;SDS011;14820;48.682;8.890;2023-01-15T12:42:52;3.33;;;1.90;;
26223;SDS011;14820;48.682;8.890;2023-01-15T12:45:45;2.72;;;1.42;;
26223;SDS011;14820;48.682;8.890;2023-01-15T12:48:15;2.97;;;1.80;;
26223;SDS011;14820;48.682;8.890;2023-01-15T12:50:47;1.88;;;1.30;;
26223;SDS011;14820;48.682;8.890;2023-01-15T12:53:38;5.95;;;2.33;;
26223;SDS011;14820;48.682;8.890;2023-01-15T13:04:49;4.90;;;2.10;;
26223;SDS011;14820;48.682;8.890;2023-01-15T13:09:52;2.95;;;1.50;;
26223;SDS011;14820;48.682;8.890;2023-01-15T13:12:25;4.07;;;1.90;;
26223;SDS011;14820;48.682;8.890;2023-01-15T13:14:53;2.65;;;1.50;;
26223;SDS011;14820;48.682;8.890;2023-01-15T13:17:24;2.50;;;1.02;;
26223;SDS011;14820;48.682;8.890;2023-01-15T13:22:22;3.55;;;1.80;;
26223;SDS011;14820;48.682;8.890;2023-01-15T13:28:00;4.15;;;1.25;;
26223;SDS011;14820;48.682;8.890;2023-01-15T13:30:45;2.65;;;1.40;;
26223;SDS011;14820;48.682;8.890;2023-01-15T13:33:51;3.72;;;1.67;;
26223;SDS011;14820;48.682;8.890;2023-01-15T13:36:34;7.70;;;3.35;;
26223;SDS011;14820;48.682;8.890;2023-01-15T13:41:36;3.10;;;1.30;;
26223;SDS011;14820;48.682;8.890;2023-01-15T13:44:22;2.88;;;1.10;;
26223;SDS011;14820;48.682;8.890;2023-01-15T13:49:30;1.92;;;1.13;;
26223;SDS011;14820;48.682;8.890;2023-01-15T13:51:59;7.47;;;1.85;;
26223;SDS011;14820;48.682;8.890;2023-01-15T13:54:28;5.18;;;1.30;;
26223;SDS011;14820;48.682;8.890;2023-01-15T13:57:39;5.53;;;1.25;;
26223;SDS011;14820;48.682;8.890;2023-01-15T13:59:58;6.47;;;1.10;;
26223;SDS011;14820;48.682;8.890;2023-01-15T14:02:25;3.22;;;1.08;;
26223;SDS011;14820;48.682;8.890;2023-01-15T14:04:52;1.67;;;0.90;;
26223;SDS011;14820;48.682;8.890;2023-01-15T14:07:19;3.05;;;1.33;;
26223;SDS011;14820;48.682;8.890;2023-01-15T14:09:54;2.45;;;1.05;;
26223;SDS011;14820;48.682;8.890;2023-01-15T14:12:37;2.17;;;1.05;;
26223;SDS011;14820;48.682;8.890;2023-01-15T14:18:23;5.28;;;1.83;;
26223;SDS011;14820;48.682;8.890;2023-01-15T14:35:09;3.58;;;1.63;;
26223;SDS011;14820;48.682;8.890;2023-01-15T14:40:15;4.40;;;2.22;;
26223;SDS011;14820;48.682;8.890;2023-01-15T14:42:43;2.38;;;1.30;;
26223;SDS011;14820;48.682;8.890;2023-01-15T14:45:34;3.58;;;1.10;;
26223;SDS011;14820;48.682;8.890;2023-01-15T14:48:10;2.88;;;1.25;;
26223;SDS011;14820;48.682;8.890;2023-01-15T14:50:52;1.58;;;0.80;;
26223;SDS011;14820;48.682;8.890;2023-01-15T14:53:33;1.45;;;0.73;;
26223;SDS011;14820;48.682;8.890;2023-01-15T14:58:51;2.15;;;1.02;;
26223;SDS011;14820;48.682;8.890;2023-01-15T15:06:53;3.15;;;0.73;;
26223;SDS011;14820;48.682;8.890;2023-01-15T15:09:36;2.30;;;0.80;;
26223;SDS011;14820;48.682;8.890;2023-01-15T15:15:09;2.70;;;1.05;;
26223;SDS011;14820;48.682;8.890;2023-01-15T15:17:39;3.33;;;0.80;;
26223;SDS011;14820;48.682;8.890;2023-01-15T15:20:32;1.40;;;0.80;;
26223;SDS011;14820;48.682;8.890;2023-01-15T15:26:22;3.05;;;0.98;;
26223;SDS011;14820;48.682;8.890;2023-01-15T15:28:54;1.92;;;0.90;;
26223;SDS011;14820;48.682;8.890;2023-01-15T15:31:22;1.10;;;0.85;;
26223;SDS011;14820;48.682;8.890;2023-01-15T15:33:50;2.67;;;1.00;;
26223;SDS011;14820;48.682;8.890;2023-01-15T15:36:21;4.43;;;1.58;;
26223;SDS011;14820;48.682;8.890;2023-01-15T15:38:50;3.03;;;1.10;;
26223;SDS011;14820;48.682;8.890;2023-01-15T15:41:21;1.90;;;1.00;;
26223;SDS011;14820;48.682;8.890;2023-01-15T15:44:12;2.30;;;1.42;;
26223;SDS011;14820;48.682;8.890;2023-01-15T15:47:01;2.10;;;1.20;;
26223;SDS011;14820;48.682;8.890;2023-01-15T15:50:03;2.63;;;1.33;;
26223;SDS011;14820;48.682;8.890;2023-01-15T15:52:29;4.65;;;1.30;;
26223;SDS011;14820;48.682;8.890;2023-01-15T15:54:57;2.58;;;1.30;;
26223;SDS011;14820;48.682;8.890;2023-01-15T15:57:30;6.10;;;1.45;;
26223;SDS011;14820;48.682;8.890;2023-01-15T15:59:58;1.70;;;0.80;;
26223;SDS011;14820;48.682;8.890;2023-01-15T16:02:33;4.80;;;2.22;;
26223;SDS011;14820;48.682;8.890;2023-01-15T16:07:46;1.95;;;1.15;;
26223;SDS011;14820;48.682;8.890;2023-01-15T16:10:13;6.05;;;1.42;;
26223;SDS011;14820;48.682;8.890;2023-01-15T16:12:45;3.53;;;1.30;;
26223;SDS011;14820;48.682;8.890;2023-01-15T16:15:15;3.58;;;1.10;;
26223;SDS011;14820;48.682;8.890;2023-01-15T16:17:44;4.68;;;1.52;;
26223;SDS011;14820;48.682;8.890;2023-01-15T16:20:13;2.78;;;1.27;;
26223;SDS011;14820;48.682;8.890;2023-01-15T16:22:56;5.30;;;1.38;;
26223;SDS011;14820;48.682;8.890;2023-01-15T16:25:31;6.28;;;1.48;;
26223;SDS011;14820;48.682;8.890;2023-01-15T16:28:02;3.25;;;1.17;;
26223;SDS011;14820;48.682;8.890;2023-01-15T16:30:29;3.33;;;1.38;;
26223;SDS011;14820;48.682;8.890;2023-01-15T16:33:00;5.88;;;1.77;;
26223;SDS011;14820;48.682;8.890;2023-01-15T16:35:29;3.20;;;1.75;;
26223;SDS011;14820;48.682;8.890;2023-01-15T16:37:58;2.75;;;1.30;;
26223;SDS011;14820;48.682;8.890;2023-01-15T16:40:29;1.98;;;1.00;;
26223;SDS011;14820;48.682;8.890;2023-01-15T16:43:09;5.55;;;2.15;;
26223;SDS011;14820;48.682;8.890;2023-01-15T16:45:52;5.15;;;2.00;;
26223;SDS011;14820;48.682;8.890;2023-01-15T16:48:36;3.47;;;1.60;;
26223;SDS011;14820;48.682;8.890;2023-01-15T16:53:54;3.20;;;1.58;;
26223;SDS011;14820;48.682;8.890;2023-01-15T16:58:48;2.22;;;1.30;;
26223;SDS011;14820;48.682;8.890;2023-01-15T17:03:46;6.88;;;1.73;;
26223;SDS011;14820;48.682;8.890;2023-01-15T17:06:12;7.07;;;2.97;;
26223;SDS011;14820;48.682;8.890;2023-01-15T17:08:41;7.72;;;3.10;;
26223;SDS011;14820;48.682;8.890;2023-01-15T17:11:20;10.07;;;5.10;;
26223;SDS011;14820;48.682;8.890;2023-01-15T17:13:46;4.97;;;3.15;;
26223;SDS011;14820;48.682;8.890;2023-01-15T17:18:42;10.80;;;3.35;;
26223;SDS011;14820;48.682;8.890;2023-01-15T17:21:18;1.70;;;1.20;;
26223;SDS011;14820;48.682;8.890;2023-01-15T17:23:51;2.90;;;1.00;;
26223;SDS011;14820;48.682;8.890;2023-01-15T17:26:18;5.40;;;1.98;;
26223;SDS011;14820;48.682;8.890;2023-01-15T17:28:45;3.28;;;1.50;;
26223;SDS011;14820;48.682;8.890;2023-01-15T17:31:25;7.20;;;1.70;;
26223;SDS011;14820;48.682;8.890;2023-01-15T17:33:55;5.47;;;1.52;;
26223;SDS011;14820;48.682;8.890;2023-01-15T17:36:22;3.28;;;1.38;;
26223;SDS011;14820;48.682;8.890;2023-01-15T17:38:48;3.47;;;0.98;;
26223;SDS011;14820;48.682;8.890;2023-01-15T17:41:14;3.05;;;1.08;;
26223;SDS011;14820;48.682;8.890;2023-01-15T17:43:41;3.03;;;1.00;;